Time;durP1;ratioP1;P1;durP2;ratioP2;P2;SDS_P1;SDS_P2;PMS_P1;PMS_P2;Temp;Humidity;BMP_temperature;BMP_pressure;BME280_temperature;BME280_humidity;BME280_pressure;Samples;Min_cycle;Max_cycle;Signal;HPM_P1;HPM_P2
2024/04/08 00:08:54;;;;;;;4.20;3.40;;;;;;;14.92;74.90;99437.77;447923;1240;139729;-59
2024/04/08 00:18:58;;;;;;;3.30;3.00;;;;;;;14.90;75.81;99422.60;445920;1239;508173;-68
2024/04/08 00:29:02;;;;;;;5.50;3.70;;;;;;;14.81;76.45;99424.80;447098;1238;139376;-68
2024/04/08 00:39:05;;;;;;;5.20;3.60;;;;;;;14.77;77.05;99420.70;446678;1240;139491;-62
2024/04/08 00:49:10;;;;;;;4.10;3.70;;;;;;;14.71;77.48;99425.04;446681;1240;138415;-58
2024/04/08 00:59:14;;;;;;;6.10;4.00;;;;;;;14.63;78.09;99425.69;446275;1241;139877;-59
2024/04/08 01:09:20;;;;;;;4.70;4.20;;;;;;;14.57;78.54;99424.76;446352;1240;139402;-62
2024/04/08 01:19:23;;;;;;;4.90;3.90;;;;;;;14.52;79.19;99416.52;446666;1238;139583;-63
2024/04/08 01:29:28;;;;;;;3.90;3.50;;;;;;;14.49;79.98;99406.94;446931;1240;140067;-58
2024/04/08 01:39:31;;;;;;;7.20;4.50;;;;;;;14.46;80.38;99409.63;446153;1241;139710;-58
2024/04/08 01:49:34;;;;;;;9.00;4.50;;;;;;;14.32;80.38;99414.99;446214;1241;140489;-63
2024/04/08 01:59:38;;;;;;;10.30;4.30;;;;;;;14.12;80.99;99404.45;446164;1238;139832;-65
2024/04/08 02:09:45;;;;;;;5.90;4.00;;;;;;;14.00;82.02;99402.14;446121;1241;139986;-62
2024/04/08 02:19:49;;;;;;;6.00;4.40;;;;;;;13.88;82.95;99390.40;446103;1240;139354;-63
2024/04/08 02:29:53;;;;;;;4.20;3.80;;;;;;;13.73;83.39;99382.66;446086;1236;139605;-69
2024/04/08 02:39:56;;;;;;;6.20;4.80;;;;;;;13.64;84.49;99377.05;446414;1241;139977;-68
2024/04/08 02:50:00;;;;;;;6.70;4.40;;;;;;;13.58;85.40;99372.42;446518;1238;139889;-69
2024/04/08 03:00:03;;;;;;;6.30;4.70;;;;;;;13.54;86.08;99374.27;446119;1241;139411;-67
2024/04/08 03:10:09;;;;;;;5.30;4.70;;;;;;;13.55;86.88;99373.69;446234;1240;139371;-58
2024/04/08 03:20:12;;;;;;;6.20;5.50;;;;;;;13.51;87.33;99368.71;446223;1236;139205;-59
2024/04/08 03:30:15;;;;;;;5.30;4.90;;;;;;;13.45;87.80;99365.98;446477;1241;139381;-59
2024/04/08 03:40:23;;;;;;;8.00;5.70;;;;;;;13.34;88.02;99377.08;447030;1236;140206;-58
2024/04/08 03:50:29;;;;;;;7.30;5.30;;;;;;;13.20;88.52;99377.66;446151;1240;139694;-58
2024/04/08 04:00:32;;;;;;;5.50;5.00;;;;;;;13.06;89.09;99376.45;446587;1238;141028;-60
2024/04/08 04:10:35;;;;;;;7.40;4.90;;;;;;;12.99;89.70;99373.61;446040;1236;140161;-57
2024/04/08 04:20:41;;;;;;;5.00;4.60;;;;;;;13.06;90.73;99369.41;446348;1240;140212;-59
2024/04/08 04:30:53;;;;;;;5.30;4.80;;;;;;;13.30;91.54;99369.27;447494;1236;139829;-59
2024/04/08 04:41:00;;;;;;;6.70;4.90;;;;;;;13.79;91.81;99371.09;447381;1236;139916;-58
2024/04/08 04:51:06;;;;;;;6.10;4.80;;;;;;;14.47;90.87;99373.80;447221;1240;139930;-58
2024/04/08 05:01:11;;;;;;;5.80;4.90;;;;;;;15.16;89.30;99371.53;447671;1238;139867;-68
2024/04/08 05:11:14;;;;;;;6.90;4.00;;;;;;;16.00;87.28;99369.52;447006;1236;139816;-68
2024/04/08 05:21:17;;;;;;;4.50;3.90;;;;;;;16.83;84.75;99368.71;446711;1240;140324;-69
2024/04/08 05:31:23;;;;;;;5.40;3.10;;;;;;;18.14;82.67;99364.80;447021;1241;139598;-69
2024/04/08 05:41:26;;;;;;;6.20;3.30;;;;;;;20.04;79.78;99365.32;446299;1236;139180;-63
2024/04/08 05:51:29;;;;;;;5.20;3.10;;;;;;;22.51;75.21;99363.71;446310;1241;139572;-63
2024/04/08 06:01:35;;;;;;;4.10;2.50;;;;;;;25.72;69.53;99364.10;446128;1241;138588;-62
2024/04/08 06:11:38;;;;;;;4.70;2.40;;;;;;;29.30;61.92;99361.73;445863;1236;138711;-63
2024/04/08 06:21:46;;;;;;;8.70;4.00;;;;;;;31.80;54.99;99362.67;445884;1241;138718;-63
2024/04/08 06:31:49;;;;;;;5.00;2.20;;;;;;;35.07;48.10;99358.98;446118;1237;137627;-63
2024/04/08 06:41:53;;;;;;;4.90;1.60;;;;;;;37.81;42.73;99359.80;446546;1241;138806;-60
2024/04/08 06:51:55;;;;;;;;;;;;;;;39.18;38.04;99354.58;446758;1241;139237;-60
2024/04/08 07:01:58;;;;;;;3.50;2.50;;;;;;;40.71;35.59;99359.32;446476;1236;124096;-63
2024/04/08 07:12:02;;;;;;;2.40;1.50;;;;;;;40.58;31.97;99358.54;461326;1236;138842;-67
2024/04/08 07:22:07;;;;;;;6.10;1.50;;;;;;;38.39;31.58;99353.75;461315;1236;138382;-68
2024/04/08 07:32:10;;;;;;;2.60;1.80;;;;;;;37.52;32.00;99354.91;449966;1238;138575;-69
2024/04/08 07:42:13;;;;;;;3.40;1.80;;;;;;;39.45;31.18;99343.23;446162;1240;139883;-68
2024/04/08 07:52:16;;;;;;;2.90;1.60;;;;;;;42.15;29.58;99323.21;461180;1236;139192;-72
2024/04/08 08:02:20;;;;;;;2.80;1.90;;;;;;;45.34;27.82;99314.45;451703;1240;139126;-75
2024/04/08 08:12:23;;;;;;;5.20;2.70;;;;;;;48.06;25.39;99324.46;461373;1236;139143;-76
2024/04/08 08:22:26;;;;;;;4.90;2.50;;;;;;;49.29;23.87;99333.23;461288;1236;139814;-80
2024/04/08 08:32:30;;;;;;;2.40;2.00;;;;;;;47.71;22.69;99332.43;461321;1240;138981;-70
2024/04/08 08:42:33;;;;;;;2.20;1.30;;;;;;;45.59;22.87;99334.69;448467;1239;138515;-70
2024/04/08 08:52:37;;;;;;;3.80;1.60;;;;;;;39.77;24.18;99323.64;446471;1241;139071;-60
2024/04/08 09:02:42;;;;;;;1.90;1.60;;;;;;;35.89;26.63;99316.61;461200;1236;138632;-61
2024/04/08 09:12:46;;;;;;;5.50;1.70;;;;;;;33.72;28.86;99310.42;461385;1237;138490;-63
2024/04/08 09:22:50;;;;;;;4.10;1.90;;;;;;;32.80;30.47;99308.31;461315;1236;139187;-62
2024/04/08 09:32:54;;;;;;;5.70;1.60;;;;;;;32.07;31.63;99298.48;461204;1236;138946;-58
2024/04/08 09:43:03;;;;;;;10.00;2.50;;;;;;;31.43;32.25;99293.23;461326;1237;138503;-59
2024/04/08 09:53:05;;;;;;;;;;;;;;;30.86;32.92;99291.42;461264;1240;139319;-64
2024/04/08 10:03:13;;;;;;;1.60;1.40;;;;;;;30.11;33.95;99291.41;461326;1236;126466;-72
2024/04/08 10:13:18;;;;;;;4.60;1.90;;;;;;;29.92;34.56;99284.94;461333;1236;140623;-63
2024/04/08 10:23:22;;;;;;;6.30;1.90;;;;;;;29.36;34.89;99285.18;461252;1240;139776;-66
2024/04/08 10:33:25;;;;;;;4.30;1.80;;;;;;;28.90;35.42;99279.34;461272;1236;139371;-59
2024/04/08 10:43:31;;;;;;;3.70;1.40;;;;;;;28.70;35.86;99263.21;461366;1240;138743;-59
2024/04/08 10:53:35;;;;;;;10.80;2.00;;;;;;;28.68;36.16;99256.18;461334;1236;138684;-61
2024/04/08 11:03:42;;;;;;;7.70;2.00;;;;;;;28.88;36.19;99249.81;461279;1236;139285;-58
2024/04/08 11:13:46;;;;;;;5.30;1.20;;;;;;;28.79;36.14;99243.96;461407;1236;139132;-62
2024/04/08 11:23:50;;;;;;;7.00;1.30;;;;;;;28.62;36.28;99240.42;461266;1236;139239;-64
2024/04/08 11:33:53;;;;;;;3.80;1.40;;;;;;;28.53;36.60;99234.38;461302;1237;139651;-64
2024/04/08 11:43:56;;;;;;;3.50;1.00;;;;;;;28.54;36.54;99227.76;461445;1236;140342;-60
2024/04/08 11:53:59;;;;;;;3.70;1.10;;;;;;;28.57;36.13;99226.15;461321;1240;139702;-60
2024/04/08 12:04:03;;;;;;;4.50;1.50;;;;;;;28.65;36.13;99212.34;461360;1237;139308;-61
2024/04/08 12:14:06;;;;;;;0.90;0.80;;;;;;;28.72;36.02;99207.17;457518;1238;5101034;-59
2024/04/08 12:24:10;;;;;;;2.70;2.20;;;;;;;28.82;35.89;99212.55;461361;1236;139182;-74
2024/04/08 12:34:13;;;;;;;2.80;1.80;;;;;;;28.90;35.85;99201.65;461357;1238;140003;-63
2024/04/08 12:44:21;;;;;;;2.90;1.30;;;;;;;28.61;35.36;99189.87;461425;1236;139586;-64
2024/04/08 12:54:24;;;;;;;2.20;1.20;;;;;;;28.48;35.62;99178.72;461441;1238;139120;-62
2024/04/08 13:04:28;;;;;;;3.80;1.30;;;;;;;28.40;36.07;99172.80;461310;1240;139615;-68
2024/04/08 13:14:31;;;;;;;5.30;1.10;;;;;;;28.29;36.08;99166.79;446671;1240;139789;-74
2024/04/08 13:24:34;;;;;;;7.00;1.20;;;;;;;28.23;36.05;99171.46;446895;1240;139346;-67
2024/04/08 13:34:40;;;;;;;2.10;1.10;;;;;;;28.08;35.92;99164.00;447160;1238;139150;-63
2024/04/08 13:44:46;;;;;;;5.20;1.10;;;;;;;27.87;36.02;99160.35;461250;1237;138506;-67
2024/04/08 13:54:49;;;;;;;5.60;1.80;;;;;;;27.62;36.20;99156.57;461369;1238;139588;-62
2024/04/08 14:04:52;;;;;;;7.20;1.20;;;;;;;27.46;35.73;99155.76;461250;1240;139199;-64
2024/04/08 14:14:57;;;;;;;7.60;1.60;;;;;;;27.34;35.88;99153.40;461347;1236;140238;-65
2024/04/08 14:25:01;;;;;;;4.10;1.90;;;;;;;27.27;36.16;99142.30;461333;1237;138567;-61
2024/04/08 14:35:06;;;;;;;4.50;1.10;;;;;;;27.20;36.33;99136.30;461229;1240;138598;-58
2024/04/08 14:45:13;;;;;;;6.60;1.40;;;;;;;27.10;36.68;99133.43;461298;1237;138524;-62
2024/04/08 14:55:18;;;;;;;2.40;1.40;;;;;;;26.99;37.07;99130.28;461357;1238;138625;-67
2024/04/08 15:05:24;;;;;;;2.80;1.10;;;;;;;26.90;36.92;99128.64;461106;1236;139115;-66
2024/04/08 15:15:27;;;;;;;4.00;1.30;;;;;;;26.75;36.64;99128.00;461330;1238;138907;-62
2024/04/08 15:25:31;;;;;;;1.40;1.10;;;;;;;26.63;36.87;99119.58;461090;1238;138604;-69
2024/04/08 15:35:34;;;;;;;3.40;0.90;;;;;;;26.49;37.25;99113.23;461271;1237;138851;-64
2024/04/08 15:45:38;;;;;;;3.60;1.60;;;;;;;26.29;37.15;99116.73;461219;1238;139137;-62
2024/04/08 15:55:42;;;;;;;5.90;2.40;;;;;;;26.05;37.12;99117.02;461362;1238;139430;-60
2024/04/08 16:05:45;;;;;;;2.70;1.40;;;;;;;25.77;37.24;99113.19;461034;1237;138855;-59
2024/04/08 16:15:51;;;;;;;4.20;1.20;;;;;;;25.49;37.64;99112.84;461228;1238;138766;-58
2024/04/08 16:25:56;;;;;;;4.70;1.80;;;;;;;25.14;37.70;99118.02;461348;1238;139086;-59
2024/04/08 16:35:59;;;;;;;9.80;2.60;;;;;;;24.75;38.32;99122.34;461318;1236;138825;-58
2024/04/08 16:46:04;;;;;;;5.10;2.60;;;;;;;24.42;39.22;99122.14;461269;1238;139035;-58
2024/04/08 16:56:07;;;;;;;14.40;2.10;;;;;;;24.06;39.77;99117.17;461345;1236;138692;-59
2024/04/08 17:06:15;;;;;;;15.40;3.00;;;;;;;23.66;40.35;99108.80;461283;1238;139161;-54
2024/04/08 17:16:18;;;;;;;9.30;2.60;;;;;;;23.20;41.46;99114.07;461180;1238;139347;-55
2024/04/08 17:26:22;;;;;;;16.50;4.00;;;;;;;22.79;42.89;99118.58;461411;1237;139039;-53
2024/04/08 17:36:25;;;;;;;13.30;4.30;;;;;;;22.23;44.00;99122.51;461386;1237;138140;-55
2024/04/08 17:46:28;;;;;;;25.40;6.70;;;;;;;21.68;44.96;99128.64;461309;1236;139174;-50
2024/04/08 17:56:35;;;;;;;10.50;4.00;;;;;;;21.21;46.51;99124.30;461228;1238;139375;-51
2024/04/08 18:06:39;;;;;;;13.20;4.20;;;;;;;20.69;47.55;99120.95;461493;1236;138636;-61
2024/04/08 18:16:43;;;;;;;17.30;5.60;;;;;;;20.28;48.67;99128.90;461309;1236;139143;-51
2024/04/08 18:26:47;;;;;;;7.90;3.00;;;;;;;20.01;50.27;99129.48;446508;1240;139293;-65
2024/04/08 18:36:51;;;;;;;9.80;8.20;;;;;;;19.75;50.38;99130.48;446400;1241;138545;-61
2024/04/08 18:46:54;;;;;;;6.70;4.10;;;;;;;19.64;50.06;99135.39;447221;1240;139520;-61
2024/04/08 18:56:58;;;;;;;7.00;4.70;;;;;;;19.55;50.07;99127.12;447120;1240;139416;-62
2024/04/08 19:07:01;;;;;;;8.90;3.60;;;;;;;19.44;50.04;99127.40;446646;1240;139075;-61
2024/04/08 19:17:05;;;;;;;7.00;4.40;;;;;;;19.32;50.32;99119.52;446554;1238;138425;-61
2024/04/08 19:27:08;;;;;;;6.20;4.60;;;;;;;19.03;51.52;99118.47;446929;1240;139272;-62
2024/04/08 19:37:11;;;;;;;12.10;9.30;;;;;;;18.68;52.80;99123.91;446499;1241;138496;-64
2024/04/08 19:47:15;;;;;;;10.10;6.50;;;;;;;18.33;53.78;99126.59;446328;1240;138846;-64
2024/04/08 19:57:18;;;;;;;6.20;5.20;;;;;;;17.99;55.06;99123.59;446480;1241;139237;-62
2024/04/08 20:07:22;;;;;;;4.90;3.00;;;;;;;17.70;55.42;99123.61;446106;1241;139020;-60
2024/04/08 20:17:25;;;;;;;11.60;4.30;;;;;;;17.59;55.35;99129.11;446672;1241;138804;-59
2024/04/08 20:27:28;;;;;;;8.40;5.20;;;;;;;17.52;55.67;99140.98;446337;1236;140113;-59
2024/04/08 20:37:32;;;;;;;7.40;6.10;;;;;;;17.40;56.03;99131.45;446849;1239;138544;-59
2024/04/08 20:47:35;;;;;;;6.90;4.90;;;;;;;17.28;56.56;99129.73;446501;1238;138550;-60
2024/04/08 20:57:39;;;;;;;8.80;5.50;;;;;;;17.08;57.71;99128.67;446767;1238;138622;-64
2024/04/08 21:07:43;;;;;;;9.20;5.40;;;;;;;16.80;58.70;99123.81;447530;1236;139142;-63
2024/04/08 21:17:48;;;;;;;5.70;3.80;;;;;;;16.53;59.28;99121.10;447462;1241;139125;-61
2024/04/08 21:27:51;;;;;;;11.40;4.90;;;;;;;16.57;59.35;99115.95;447380;1236;138678;-60
2024/04/08 21:37:55;;;;;;;9.10;4.90;;;;;;;16.49;60.17;99111.05;446323;1236;139134;-60
2024/04/08 21:47:58;;;;;;;5.40;4.60;;;;;;;16.22;60.99;99106.54;446134;1240;138633;-59
2024/04/08 21:58:01;;;;;;;5.90;3.50;;;;;;;16.28;60.62;99104.04;446536;1238;139568;-58
2024/04/08 22:08:05;;;;;;;3.40;3.10;;;;;;;16.43;60.17;99107.73;446844;1238;139551;-60
2024/04/08 22:18:10;;;;;;;5.40;3.10;;;;;;;16.55;59.78;99099.73;446552;1240;139290;-61
2024/04/08 22:28:13;;;;;;;3.90;2.80;;;;;;;16.58;59.38;99098.87;447326;1236;140090;-59
2024/04/08 22:38:17;;;;;;;6.50;5.00;;;;;;;16.51;59.50;99099.91;448624;1239;139104;-59
2024/04/08 22:48:20;;;;;;;5.50;3.50;;;;;;;16.40;59.75;99091.59;448031;1236;138568;-64
2024/04/08 22:58:23;;;;;;;3.10;2.80;;;;;;;16.20;60.18;99084.81;448138;1240;139113;-59
2024/04/08 23:08:26;;;;;;;5.60;3.10;;;;;;;16.05;60.60;99079.36;447400;1238;138685;-60
2024/04/08 23:18:32;;;;;;;3.40;3.00;;;;;;;15.91;61.18;99076.11;446621;1236;138544;-59
2024/04/08 23:28:36;;;;;;;4.80;3.60;;;;;;;15.68;61.82;99074.11;446712;1240;139190;-59
2024/04/08 23:38:39;;;;;;;4.80;3.50;;;;;;;15.52;62.38;99069.09;446238;1240;138808;-59
2024/04/08 23:48:42;;;;;;;6.50;3.50;;;;;;;15.34;62.87;99066.85;446431;1239;137724;-61
2024/04/08 23:58:49;;;;;;;4.70;2.50;;;;;;;15.15;63.42;99061.35;446102;1236;139021;-60
